DFOS weather

Sideradougou Airport
Sideradougou, Comoe, Burkina Faso

Public forecast

Using degrees Celsius for public forecast. Weather courtesy of forecast.io.

Closest aviation weather report (METAR) to Sideradougou Airport

Closest report is Bobo Dioulasso Airport, 29.8 nm (55.3 km) N. Retrieved 2020/01/25 07:00 UTC (27 minutes ago):

DFOO 250700Z 07013KT 4500 DU NSC 24/03 Q1015

Closest aviation forecast (TAF) to Sideradougou Airport

Closest forecast is Bobo Dioulasso Airport, 29.8 nm (55.3 km) N. Retrieved 2020/01/25 06:37 UTC (50 minutes ago):

TAF COR DFOO 250600Z 2506/2606 06010KT 4000 DU NSC TEMPO 2506/2510 2000 DU BECMG 2520/2522 6000 NSW